Time;durP1;ratioP1;P1;durP2;ratioP2;P2;SDS_P1;SDS_P2;PMS_P1;PMS_P2;Temp;Humidity;BMP_temperature;BMP_pressure;BME280_temperature;BME280_humidity;BME280_pressure;Samples;Min_cycle;Max_cycle;Signal;HPM_P1;HPM_P2
2024/03/06 00:00:20;;;;;;;23.43;14.30;;;;;;;7.19;100.00;100104.09;1458780;90;21272;-74
2024/03/06 00:02:46;;;;;;;20.27;12.60;;;;;;;7.18;100.00;100106.39;1451722;89;22300;-73
2024/03/06 00:05:20;;;;;;;22.20;13.90;;;;;;;7.12;100.00;100111.70;1453861;90;21886;-73
2024/03/06 00:07:48;;;;;;;20.73;13.07;;;;;;;7.13;100.00;100113.36;1449462;89;21641;-74
2024/03/06 00:10:14;;;;;;;20.23;14.00;;;;;;;7.14;100.00;100116.84;1457520;89;21464;-75
2024/03/06 00:12:41;;;;;;;22.97;13.87;;;;;;;7.10;100.00;100112.30;1454310;89;21486;-75
2024/03/06 00:15:08;;;;;;;19.63;13.63;;;;;;;7.12;100.00;100114.33;1453802;89;21383;-75
2024/03/06 00:17:34;;;;;;;21.50;14.70;;;;;;;7.11;100.00;100117.94;1450742;89;21507;-74
2024/03/06 00:20:00;;;;;;;20.90;13.37;;;;;;;7.18;100.00;100118.23;1451926;89;21398;-74
2024/03/06 00:22:27;;;;;;;21.27;13.67;;;;;;;7.23;100.00;100126.08;1448485;89;21390;-74
2024/03/06 00:24:52;;;;;;;23.37;14.37;;;;;;;7.22;100.00;100123.56;1451607;89;21426;-74
2024/03/06 00:27:19;;;;;;;22.00;12.90;;;;;;;7.26;100.00;100126.30;1450609;89;21405;-74
2024/03/06 00:29:45;;;;;;;17.83;12.43;;;;;;;7.29;100.00;100130.47;1458145;90;21338;-74
2024/03/06 00:32:11;;;;;;;19.57;13.27;;;;;;;7.29;100.00;100122.08;1452700;89;21398;-74
2024/03/06 00:34:38;;;;;;;19.97;13.43;;;;;;;7.28;100.00;100118.25;1449677;89;21375;-74
2024/03/06 00:37:04;;;;;;;20.80;14.13;;;;;;;7.26;100.00;100127.61;1449785;90;21419;-74
2024/03/06 00:39:30;;;;;;;20.20;13.10;;;;;;;7.30;100.00;100124.22;1456822;89;21449;-74
2024/03/06 00:41:56;;;;;;;21.70;14.70;;;;;;;7.30;100.00;100121.59;1454119;90;21405;-73
2024/03/06 00:44:22;;;;;;;22.00;13.47;;;;;;;7.30;100.00;100121.59;1455312;90;21382;-74
2024/03/06 00:46:48;;;;;;;24.00;13.90;;;;;;;7.28;100.00;100120.88;1452799;89;21331;-74
2024/03/06 00:49:14;;;;;;;20.07;13.30;;;;;;;7.29;100.00;100121.25;1448636;90;21412;-74
2024/03/06 00:51:40;;;;;;;18.87;12.83;;;;;;;7.22;100.00;100117.84;1448236;89;21464;-74
2024/03/06 00:54:06;;;;;;;17.63;12.37;;;;;;;7.22;100.00;100120.47;1450340;89;21383;-74
2024/03/06 00:56:33;;;;;;;18.13;12.70;;;;;;;7.24;100.00;100118.52;1453489;89;21456;-73
2024/03/06 00:58:59;;;;;;;20.07;13.03;;;;;;;7.23;100.00;100119.98;1454713;89;22307;-74
2024/03/06 01:01:26;;;;;;;21.03;14.23;;;;;;;7.21;100.00;100124.05;1448615;90;21473;-75
2024/03/06 01:03:53;;;;;;;22.87;14.50;;;;;;;7.18;100.00;100120.86;1456453;89;22314;-74
2024/03/06 01:06:22;;;;;;;18.57;14.17;;;;;;;7.18;100.00;100121.69;1451398;90;21807;-74
2024/03/06 01:08:56;;;;;;;19.53;13.03;;;;;;;7.13;100.00;100117.30;1447638;89;22432;-75
2024/03/06 01:11:23;;;;;;;20.57;12.30;;;;;;;7.16;100.00;100117.06;1452406;89;21346;-74
2024/03/06 01:13:49;;;;;;;19.43;13.20;;;;;;;7.14;100.00;100120.30;1453500;89;21368;-74
2024/03/06 01:16:19;;;;;;;20.90;12.47;;;;;;;7.17;100.00;100117.89;1457023;90;21457;-74
2024/03/06 01:18:50;;;;;;;20.07;13.40;;;;;;;7.13;100.00;100118.62;1447268;90;21648;-74
2024/03/06 01:21:14;;;;;;;20.83;13.27;;;;;;;7.14;100.00;100118.98;1451162;89;21643;-74
2024/03/06 01:23:40;;;;;;;19.47;12.77;;;;;;;7.16;100.00;100126.27;1449620;89;22220;-74
2024/03/06 01:26:06;;;;;;;20.43;13.67;;;;;;;7.16;100.00;100130.22;1456410;90;21369;-75
2024/03/06 01:28:33;;;;;;;25.87;14.17;;;;;;;7.16;100.00;100128.91;1453956;89;21324;-74
2024/03/06 01:30:59;;;;;;;22.37;15.53;;;;;;;7.18;100.00;100126.95;1450706;89;21353;-74
2024/03/06 01:33:25;;;;;;;22.37;13.60;;;;;;;7.18;100.00;100134.85;1448331;89;21405;-74
2024/03/06 01:35:51;;;;;;;19.13;12.73;;;;;;;7.15;100.00;100136.92;1453731;90;21427;-74
2024/03/06 01:38:17;;;;;;;22.10;15.50;;;;;;;7.09;100.00;100129.56;1461592;89;22276;-75
2024/03/06 01:40:45;;;;;;;23.17;14.37;;;;;;;7.12;100.00;100139.33;1451156;89;21420;-74
2024/03/06 01:43:24;;;;;;;24.17;14.17;;;;;;;7.07;100.00;100133.62;1457191;90;21584;-74
2024/03/06 01:45:52;;;;;;;19.73;13.93;;;;;;;7.02;100.00;100138.48;1455325;90;21926;-75
2024/03/06 01:48:25;;;;;;;21.40;13.83;;;;;;;7.06;100.00;100135.09;1441602;90;21449;-74
2024/03/06 01:50:55;;;;;;;24.57;15.17;;;;;;;6.99;100.00;100143.52;1454986;89;21405;-74
2024/03/06 01:53:24;;;;;;;19.80;13.28;;;;;;;7.00;100.00;100143.85;1452270;89;21367;-74
2024/03/06 01:55:51;;;;;;;22.07;14.67;;;;;;;6.99;100.00;100141.34;1454042;89;21520;-74
2024/03/06 01:58:18;;;;;;;22.47;14.47;;;;;;;6.96;100.00;100137.20;1455389;90;21523;-74
2024/03/06 02:00:44;;;;;;;22.20;14.50;;;;;;;6.94;100.00;100140.92;1449431;89;21280;-73
2024/03/06 02:03:12;;;;;;;21.00;13.73;;;;;;;6.94;100.00;100136.49;1455125;89;21658;-74
2024/03/06 02:05:38;;;;;;;24.57;14.93;;;;;;;6.89;100.00;100137.84;1452090;90;21427;-74
2024/03/06 02:08:06;;;;;;;19.43;13.00;;;;;;;6.91;100.00;100134.61;1456495;90;21368;-74
2024/03/06 02:10:32;;;;;;;22.43;14.37;;;;;;;6.93;100.00;100137.92;1453719;90;21523;-74
2024/03/06 02:12:59;;;;;;;27.37;16.23;;;;;;;6.96;100.00;100145.55;1454180;89;22380;-74
2024/03/06 02:15:25;;;;;;;21.70;12.87;;;;;;;6.93;100.00;100142.73;1455578;89;21881;-74
2024/03/06 02:17:53;;;;;;;21.03;14.47;;;;;;;6.96;100.00;100145.55;1456225;89;21309;-73
2024/03/06 02:20:24;;;;;;;22.73;13.90;;;;;;;6.94;100.00;100143.55;1450669;89;21422;-73
2024/03/06 02:22:51;;;;;;;20.30;14.70;;;;;;;6.96;100.00;100145.55;1462202;89;21456;-74
2024/03/06 02:25:19;;;;;;;23.77;15.13;;;;;;;6.97;100.00;100149.87;1452841;89;22263;-74
2024/03/06 02:27:45;;;;;;;25.30;15.50;;;;;;;6.90;100.00;100153.97;1446526;89;22385;-74
2024/03/06 02:30:12;;;;;;;25.73;16.90;;;;;;;6.90;100.00;100152.17;1446015;90;21974;-73
2024/03/06 02:32:38;;;;;;;18.40;13.70;;;;;;;6.88;100.00;100155.44;1447058;89;21287;-74
2024/03/06 02:35:08;;;;;;;26.50;16.57;;;;;;;6.89;100.00;100156.27;1446616;90;22447;-73
2024/03/06 02:37:33;;;;;;;23.27;15.33;;;;;;;6.86;100.00;100154.72;1449753;89;22050;-73
2024/03/06 02:39:59;;;;;;;23.83;14.63;;;;;;;6.86;100.00;100158.67;1447147;89;22234;-75
2024/03/06 02:42:27;;;;;;;23.60;15.53;;;;;;;6.87;100.00;100162.13;1454739;90;21368;-75
2024/03/06 02:44:53;;;;;;;25.30;14.27;;;;;;;6.85;100.00;100167.98;1451326;89;21376;-74
2024/03/06 02:47:19;;;;;;;24.17;15.37;;;;;;;6.82;100.00;100165.63;1455327;90;21442;-75
2024/03/06 02:49:45;;;;;;;24.00;14.93;;;;;;;6.85;100.00;100165.36;1448757;89;21457;-75
2024/03/06 02:52:11;;;;;;;21.50;13.20;;;;;;;6.83;100.00;100168.63;1449220;89;21376;-76
2024/03/06 02:54:39;;;;;;;21.87;14.53;;;;;;;6.84;100.00;100173.73;1447977;89;21330;-75
2024/03/06 02:57:07;;;;;;;19.83;13.33;;;;;;;6.85;100.00;100172.80;1457420;89;21479;-75
2024/03/06 02:59:33;;;;;;;26.90;14.63;;;;;;;6.89;100.00;100179.45;1453373;90;22211;-75
2024/03/06 03:02:00;;;;;;;22.70;14.93;;;;;;;6.92;100.00;100179.67;1446709;90;21391;-75
2024/03/06 03:04:26;;;;;;;23.20;15.10;;;;;;;6.93;100.00;100181.34;1448970;90;22292;-75
2024/03/06 03:06:52;;;;;;;23.23;15.10;;;;;;;6.89;100.00;100183.89;1455767;90;21397;-75
2024/03/06 03:09:18;;;;;;;22.77;15.30;;;;;;;6.92;100.00;100182.31;1451802;90;21494;-74
2024/03/06 03:11:44;;;;;;;21.93;15.00;;;;;;;6.89;100.00;100182.08;1451774;89;21561;-75
2024/03/06 03:14:10;;;;;;;19.37;13.40;;;;;;;6.88;100.00;100179.11;1449096;89;21346;-75
2024/03/06 03:16:36;;;;;;;20.50;13.60;;;;;;;6.87;100.00;100180.54;1462423;89;22313;-74
2024/03/06 03:19:02;;;;;;;21.60;13.83;;;;;;;6.90;100.00;100182.42;1453249;90;21369;-74
2024/03/06 03:21:29;;;;;;;20.73;13.57;;;;;;;6.91;100.00;100180.66;1449150;90;21598;-74
2024/03/06 03:23:55;;;;;;;19.53;12.87;;;;;;;6.91;100.00;100179.34;1452941;90;21302;-74
2024/03/06 03:26:21;;;;;;;21.23;13.30;;;;;;;6.90;100.00;100182.91;1454870;89;21419;-74
2024/03/06 03:28:47;;;;;;;26.77;13.67;;;;;;;6.90;100.00;100182.91;1454765;89;21391;-74
2024/03/06 03:31:13;;;;;;;20.50;12.67;;;;;;;6.89;100.00;100189.15;1451314;89;21383;-74
2024/03/06 03:33:40;;;;;;;21.50;12.90;;;;;;;6.89;100.00;100189.15;1453713;89;22256;-74
2024/03/06 03:36:07;;;;;;;20.67;12.50;;;;;;;6.88;100.00;100187.49;1453671;89;22281;-74
2024/03/06 03:38:38;;;;;;;20.63;13.73;;;;;;;6.85;100.00;100191.67;1456820;89;22329;-75
2024/03/06 03:41:16;;;;;;;22.05;13.45;;;;;;;6.91;100.00;100192.48;1455094;90;21856;-74
2024/03/06 03:43:42;;;;;;;21.70;12.83;;;;;;;6.92;100.00;100192.34;1447267;89;21472;-74
2024/03/06 03:46:09;;;;;;;21.73;13.33;;;;;;;6.90;100.00;100193.44;1452800;90;22307;-73
2024/03/06 03:48:36;;;;;;;20.50;12.87;;;;;;;6.88;100.00;100195.38;1457131;90;21376;-73
2024/03/06 03:51:07;;;;;;;24.53;12.50;;;;;;;6.88;100.00;100191.44;1445706;89;21569;-73
2024/03/06 03:53:34;;;;;;;20.55;11.60;;;;;;;6.86;100.00;100194.67;1458526;90;21375;-74
2024/03/06 03:56:01;;;;;;;23.37;14.37;;;;;;;6.81;100.00;100201.62;1451343;89;21426;-73
2024/03/06 03:58:27;;;;;;;21.13;13.50;;;;;;;6.84;100.00;100201.84;1451097;89;21429;-73
2024/03/06 04:00:55;;;;;;;22.03;13.47;;;;;;;6.83;100.00;100202.83;1455737;90;21346;-74
2024/03/06 04:03:24;;;;;;;20.50;11.90;;;;;;;6.81;100.00;100206.05;1444572;90;21456;-74
2024/03/06 04:05:50;;;;;;;19.60;12.10;;;;;;;6.75;100.00;100208.71;1426084;91;21297;-73
2024/03/06 04:08:16;;;;;;;16.60;10.83;;;;;;;6.73;100.00;100206.23;1445625;88;21494;-73
2024/03/06 04:10:48;;;;;;;21.83;11.20;;;;;;;6.68;100.00;100205.77;1452248;90;21338;-73
2024/03/06 04:13:12;;;;;;;18.53;11.53;;;;;;;6.66;100.00;100202.42;1452287;89;21567;-74
2024/03/06 04:15:38;;;;;;;19.47;11.97;;;;;;;6.69;100.00;100203.48;1450838;90;22536;-74
2024/03/06 04:18:05;;;;;;;20.40;12.30;;;;;;;6.58;100.00;100201.39;1454912;90;21354;-74
2024/03/06 04:20:31;;;;;;;20.73;11.40;;;;;;;6.53;100.00;100203.08;1449538;89;21390;-73
2024/03/06 04:22:57;;;;;;;18.63;11.60;;;;;;;6.47;100.00;100200.96;1462192;89;21272;-74
2024/03/06 04:25:23;;;;;;;17.73;11.10;;;;;;;6.48;100.00;100202.65;1454364;89;21425;-74
2024/03/06 04:27:50;;;;;;;21.77;14.27;;;;;;;6.44;100.00;100202.53;1451363;90;21339;-74
2024/03/06 04:30:16;;;;;;;17.27;10.80;;;;;;;6.40;100.00;100203.27;1455120;90;21347;-74
2024/03/06 04:32:42;;;;;;;23.40;13.37;;;;;;;6.38;100.00;100199.09;1448749;90;22294;-74
2024/03/06 04:35:11;;;;;;;17.33;10.97;;;;;;;6.36;100.00;100198.38;1452266;89;21338;-73
2024/03/06 04:37:37;;;;;;;22.27;13.03;;;;;;;6.37;100.00;100205.33;1451467;90;22271;-73
2024/03/06 04:40:07;;;;;;;20.10;12.40;;;;;;;6.36;100.00;100203.64;1449169;89;21457;-72
2024/03/06 04:42:33;;;;;;;22.67;12.73;;;;;;;6.32;100.00;100204.38;1456112;89;21464;-74
2024/03/06 04:44:59;;;;;;;18.27;12.00;;;;;;;6.29;100.00;100202.83;1457756;90;22384;-74
2024/03/06 04:47:25;;;;;;;20.93;13.30;;;;;;;6.28;100.00;100202.48;1454897;89;21368;-74
2024/03/06 04:49:51;;;;;;;18.37;11.03;;;;;;;6.25;100.00;100204.05;1446561;90;21383;-77
2024/03/06 04:52:17;;;;;;;19.37;12.27;;;;;;;6.19;100.00;100205.05;1460915;89;21525;-75
2024/03/06 04:54:43;;;;;;;17.63;10.73;;;;;;;6.26;100.00;100200.45;1454347;89;21456;-75
2024/03/06 04:57:09;;;;;;;15.67;10.90;;;;;;;6.20;100.00;100206.22;1444743;89;21412;-74
2024/03/06 04:59:36;;;;;;;18.23;11.80;;;;;;;6.20;100.00;100204.90;1453965;90;21347;-75
2024/03/06 05:02:03;;;;;;;16.50;10.83;;;;;;;6.17;100.00;100201.21;1460474;90;21309;-74
2024/03/06 05:04:29;;;;;;;16.23;10.23;;;;;;;6.20;100.00;100203.59;1452329;90;21428;-75
2024/03/06 05:06:55;;;;;;;16.77;10.80;;;;;;;6.22;100.00;100208.25;1449083;89;23006;-75
2024/03/06 05:09:21;;;;;;;20.50;11.20;;;;;;;6.20;100.00;100202.76;1463172;89;21420;-75
2024/03/06 05:11:50;;;;;;;17.57;11.07;;;;;;;6.19;100.00;100212.44;1462236;89;21362;-75
2024/03/06 05:14:16;;;;;;;17.90;11.97;;;;;;;6.18;100.00;100212.06;1456742;89;21419;-75
2024/03/06 05:16:42;;;;;;;14.57;9.63;;;;;;;6.22;100.00;100206.94;1462391;89;21497;-75
2024/03/06 05:19:10;;;;;;;20.60;11.70;;;;;;;6.18;100.00;100212.55;1451246;89;22329;-75
2024/03/06 05:21:37;;;;;;;20.43;11.93;;;;;;;6.22;100.00;100210.88;1452187;89;22210;-75
2024/03/06 05:24:03;;;;;;;18.00;11.53;;;;;;;6.22;100.00;100216.62;1445423;90;21390;-75
2024/03/06 05:26:29;;;;;;;20.37;10.47;;;;;;;6.23;100.00;100215.16;1456380;89;21338;-75
2024/03/06 05:28:55;;;;;;;14.13;9.90;;;;;;;6.25;100.00;100213.25;1456729;90;21332;-75
2024/03/06 05:31:22;;;;;;;15.47;11.03;;;;;;;6.17;100.00;100214.34;1449527;89;21361;-75
2024/03/06 05:33:49;;;;;;;15.10;9.90;;;;;;;6.21;100.00;100211.81;1452770;89;22344;-75
2024/03/06 05:36:17;;;;;;;14.83;10.47;;;;;;;6.19;100.00;100213.76;1460386;89;21636;-74
2024/03/06 05:38:45;;;;;;;20.13;10.40;;;;;;;6.22;100.00;100216.13;1450284;90;22204;-74
2024/03/06 05:41:11;;;;;;;14.97;10.20;;;;;;;6.24;100.00;100212.91;1452239;89;22313;-75
2024/03/06 05:43:37;;;;;;;15.80;10.03;;;;;;;6.27;100.00;100213.11;1456015;90;21405;-75
2024/03/06 05:46:04;;;;;;;14.57;9.87;;;;;;;6.27;100.00;100213.97;1455627;89;21287;-75
2024/03/06 05:48:30;;;;;;;19.50;11.27;;;;;;;6.29;100.00;100218.59;1446744;89;21602;-75
2024/03/06 05:50:57;;;;;;;16.07;10.63;;;;;;;6.35;100.00;100216.44;1455144;89;21517;-75
2024/03/06 05:53:23;;;;;;;16.87;9.20;;;;;;;6.30;100.00;100217.66;1453330;89;21397;-75
2024/03/06 05:55:49;;;;;;;15.87;9.40;;;;;;;6.33;100.00;100227.92;1453504;89;21375;-75
2024/03/06 05:58:16;;;;;;;18.03;9.63;;;;;;;6.37;100.00;100221.09;1444583;90;21472;-74
2024/03/06 06:00:43;;;;;;;13.73;9.50;;;;;;;6.37;100.00;100219.78;1458445;89;21368;-75
2024/03/06 06:03:12;;;;;;;18.97;10.50;;;;;;;6.48;100.00;100225.83;1450104;89;21396;-76
2024/03/06 06:05:39;;;;;;;14.33;10.03;;;;;;;6.47;100.00;100222.86;1457744;90;21406;-74
2024/03/06 06:08:06;;;;;;;12.43;7.60;;;;;;;6.43;100.00;100225.85;1459119;89;21435;-75
2024/03/06 06:10:33;;;;;;;20.13;10.00;;;;;;;6.47;100.00;100229.88;1456674;89;21502;-75
2024/03/06 06:13:00;;;;;;;12.93;8.40;;;;;;;6.57;100.00;100222.92;1451676;90;21404;-75
2024/03/06 06:15:26;;;;;;;13.80;8.37;;;;;;;6.56;100.00;100235.72;1454780;89;21553;-75
2024/03/06 06:17:52;;;;;;;14.40;8.90;;;;;;;6.59;100.00;100227.58;1462095;89;21680;-75
2024/03/06 06:20:18;;;;;;;13.07;8.70;;;;;;;6.60;100.00;100231.87;1451940;90;21413;-75
2024/03/06 06:22:45;;;;;;;13.97;8.97;;;;;;;6.65;100.00;100230.19;1455989;90;21361;-75
2024/03/06 06:25:11;;;;;;;11.73;7.60;;;;;;;6.68;100.00;100230.76;1455180;89;21471;-75
2024/03/06 06:27:38;;;;;;;14.67;8.53;;;;;;;6.75;100.00;100235.84;1455208;89;21383;-76
2024/03/06 06:30:06;;;;;;;12.20;8.57;;;;;;;6.82;100.00;100239.28;1452492;89;21434;-75
2024/03/06 06:32:32;;;;;;;15.53;10.30;;;;;;;6.87;100.00;100236.61;1452895;89;22377;-75
2024/03/06 06:34:58;;;;;;;14.10;9.83;;;;;;;6.94;100.00;100235.16;1455066;89;21441;-76
2024/03/06 06:37:24;;;;;;;11.77;8.77;;;;;;;6.97;100.00;100235.38;1450568;90;21427;-75
2024/03/06 06:39:50;;;;;;;15.90;10.17;;;;;;;7.07;100.00;100231.00;1458054;89;21584;-74
2024/03/06 06:42:16;;;;;;;15.07;9.83;;;;;;;7.11;100.00;100233.73;1446920;89;21818;-75
2024/03/06 06:44:42;;;;;;;20.80;11.20;;;;;;;7.13;100.00;100234.42;1452032;89;22226;-75
2024/03/06 06:47:08;;;;;;;15.23;9.80;;;;;;;7.27;100.00;100236.37;1448998;89;21397;-74
2024/03/06 06:49:34;;;;;;;14.10;9.53;;;;;;;7.30;100.00;100240.88;1459548;89;21479;-75
2024/03/06 06:52:00;;;;;;;14.43;9.10;;;;;;;7.34;100.00;100238.84;1452130;90;21368;-75
2024/03/06 06:54:26;;;;;;;14.93;8.90;;;;;;;7.36;100.00;100235.58;1456056;89;22909;-76
2024/03/06 06:56:53;;;;;;;15.90;10.47;;;;;;;7.38;100.00;100241.55;1449868;89;21419;-75
2024/03/06 06:59:21;;;;;;;16.97;10.03;;;;;;;7.41;100.00;100239.48;1449490;89;22277;-75
2024/03/06 07:01:48;;;;;;;13.07;8.73;;;;;;;7.40;100.00;100240.46;1455859;89;22279;-76
2024/03/06 07:04:17;;;;;;;15.17;9.80;;;;;;;7.43;100.00;100238.05;1461868;90;21294;-75
2024/03/06 07:06:42;;;;;;;15.50;10.63;;;;;;;7.53;100.00;100240.22;1456540;89;21418;-75
2024/03/06 07:09:09;;;;;;;17.17;9.53;;;;;;;7.56;100.00;100243.91;1456202;89;21479;-76
2024/03/06 07:11:35;;;;;;;15.63;10.50;;;;;;;7.55;100.00;100244.06;1453655;90;21605;-74
2024/03/06 07:14:01;;;;;;;40.80;12.73;;;;;;;7.62;100.00;100244.72;1447019;90;21607;-75
2024/03/06 07:16:27;;;;;;;19.57;10.63;;;;;;;7.59;100.00;100254.17;1450947;89;21420;-75
2024/03/06 07:18:53;;;;;;;29.20;11.47;;;;;;;7.59;100.00;100252.86;1463645;90;21361;-77
2024/03/06 07:21:19;;;;;;;16.70;9.83;;;;;;;7.63;100.00;100258.23;1449142;90;21332;-75
2024/03/06 07:23:49;;;;;;;27.27;10.90;;;;;;;7.72;100.00;100258.41;1449312;90;22338;-75
2024/03/06 07:26:15;;;;;;;18.07;11.10;;;;;;;7.88;100.00;100251.67;1451942;89;21426;-75
2024/03/06 07:28:41;;;;;;;17.67;10.87;;;;;;;7.97;100.00;100251.80;1454807;90;22554;-75
2024/03/06 07:31:09;;;;;;;18.03;11.70;;;;;;;8.09;100.00;100254.20;1450285;89;21398;-75
2024/03/06 07:33:37;;;;;;;20.50;11.83;;;;;;;8.17;100.00;100255.31;1448449;89;21523;-76
2024/03/06 07:36:06;;;;;;;16.57;11.13;;;;;;;8.10;100.00;100257.67;1451417;89;21493;-75
2024/03/06 07:38:32;;;;;;;15.13;11.20;;;;;;;8.08;100.00;100261.74;1450245;90;21316;-75
2024/03/06 07:40:58;;;;;;;16.80;10.10;;;;;;;8.17;100.00;100261.45;1453666;89;21420;-75
2024/03/06 07:43:24;;;;;;;18.13;10.43;;;;;;;8.19;100.00;100256.02;1451885;89;22255;-75
2024/03/06 07:45:51;;;;;;;15.10;10.20;;;;;;;8.21;100.00;100264.63;1452743;89;21398;-75
2024/03/06 07:48:17;;;;;;;14.00;10.07;;;;;;;8.26;100.00;100265.89;1457124;89;21338;-76
2024/03/06 07:50:43;;;;;;;15.63;10.60;;;;;;;8.23;100.00;100273.22;1459148;89;21442;-75
2024/03/06 07:53:09;;;;;;;14.67;9.73;;;;;;;8.31;100.00;100261.02;1453138;89;21331;-75
2024/03/06 07:55:35;;;;;;;18.90;10.17;;;;;;;8.29;100.00;100266.94;1449425;89;21308;-75
2024/03/06 07:58:01;;;;;;;15.07;10.50;;;;;;;8.39;100.00;100269.61;1454253;89;21427;-76
2024/03/06 08:00:27;;;;;;;15.47;10.50;;;;;;;8.59;100.00;100273.09;1450097;89;21442;-75
2024/03/06 08:02:53;;;;;;;13.43;9.97;;;;;;;8.50;100.00;100276.08;1451653;89;21474;-75
2024/03/06 08:05:21;;;;;;;18.17;10.57;;;;;;;8.58;100.00;100268.31;1454154;89;21399;-75
2024/03/06 08:07:47;;;;;;;16.07;10.00;;;;;;;8.79;100.00;100269.97;1454459;89;22197;-76
2024/03/06 08:10:14;;;;;;;13.53;9.50;;;;;;;8.92;100.00;100271.84;1455197;90;21332;-76
2024/03/06 08:12:44;;;;;;;14.33;9.73;;;;;;;8.99;100.00;100278.70;1456998;89;21375;-75
2024/03/06 08:15:12;;;;;;;22.00;9.93;;;;;;;8.98;100.00;100279.20;1378392;89;21257;-75
2024/03/06 08:17:43;;;;;;;17.47;10.30;;;;;;;8.96;100.00;100286.91;1377531;89;21324;-76
2024/03/06 08:20:11;;;;;;;15.00;8.67;;;;;;;8.89;100.00;100285.33;1383489;89;21457;-75
2024/03/06 08:22:43;;;;;;;15.53;10.80;;;;;;;9.00;100.00;100283.83;1378350;89;21206;-76
2024/03/06 08:25:16;;;;;;;15.77;10.40;;;;;;;8.97;100.00;100289.39;1376478;89;21405;-74
2024/03/06 08:27:42;;;;;;;18.40;9.73;;;;;;;8.88;100.00;100287.59;1375924;89;21347;-75
2024/03/06 08:30:09;;;;;;;12.63;8.53;;;;;;;8.82;100.00;100285.52;1399147;90;21412;-75
2024/03/06 08:32:37;;;;;;;14.00;10.03;;;;;;;8.79;100.00;100289.76;1457215;89;21361;-75
2024/03/06 08:35:06;;;;;;;14.67;10.33;;;;;;;8.89;100.00;100285.78;1454538;89;22337;-76
2024/03/06 08:37:33;;;;;;;15.37;9.33;;;;;;;8.93;100.00;100292.47;1451895;89;21441;-75
2024/03/06 08:40:00;;;;;;;18.23;10.50;;;;;;;9.07;100.00;100287.25;1377902;89;21317;-76
2024/03/06 08:42:28;;;;;;;19.70;10.20;;;;;;;9.17;100.00;100289.37;1371766;90;21339;-75
2024/03/06 08:44:54;;;;;;;13.47;9.33;;;;;;;9.23;100.00;100286.98;1378269;89;21402;-75
2024/03/06 08:47:20;;;;;;;16.93;11.10;;;;;;;9.34;100.00;100291.27;1379825;90;21258;-76
2024/03/06 08:49:46;;;;;;;13.17;9.00;;;;;;;9.35;100.00;100296.06;1379483;90;21221;-77
2024/03/06 08:52:14;;;;;;;14.97;10.30;;;;;;;9.33;100.00;100296.22;1380138;90;22189;-77
2024/03/06 08:54:43;;;;;;;14.50;10.10;;;;;;;9.38;100.00;100293.99;1378120;90;21420;-75
2024/03/06 08:57:11;;;;;;;13.03;9.07;;;;;;;9.45;100.00;100293.75;1385301;89;21264;-76
2024/03/06 08:59:37;;;;;;;13.13;10.00;;;;;;;9.53;100.00;100297.50;1377908;89;21339;-76
2024/03/06 09:02:23;;;;;;;15.03;10.57;;;;;;;9.62;100.00;100299.27;1379303;90;21280;-76
2024/03/06 09:04:47;;;;;;;13.87;9.20;;;;;;;9.82;100.00;100306.14;1376469;93;21273;-76
2024/03/06 09:07:14;;;;;;;16.93;9.83;;;;;;;9.74;100.00;100299.42;1379879;89;21258;-75
2024/03/06 09:09:41;;;;;;;13.53;8.23;;;;;;;9.87;100.00;100306.55;1384956;89;22152;-76
2024/03/06 09:12:14;;;;;;;13.67;9.00;;;;;;;9.76;100.00;100312.02;1372082;90;21450;-75
2024/03/06 09:14:38;;;;;;;15.40;8.87;;;;;;;9.64;100.00;100311.86;1523637;90;21354;-75
2024/03/06 09:17:05;;;;;;;13.23;8.87;;;;;;;9.39;100.00;100312.81;1383727;90;21287;-76
2024/03/06 09:19:32;;;;;;;12.07;8.17;;;;;;;9.35;100.00;100318.05;1378553;89;21369;-76
2024/03/06 09:21:59;;;;;;;14.17;8.57;;;;;;;9.34;100.00;100321.65;1378431;89;21258;-75
2024/03/06 09:24:25;;;;;;;22.83;9.77;;;;;;;9.35;100.00;100328.62;1379005;89;22212;-75
2024/03/06 09:26:52;;;;;;;18.57;10.07;;;;;;;9.32;100.00;100322.30;1402997;90;21323;-75
2024/03/06 09:29:20;;;;;;;16.20;8.07;;;;;;;9.37;100.00;100324.00;1449055;89;21471;-76
2024/03/06 09:31:50;;;;;;;14.27;8.43;;;;;;;9.38;100.00;100321.73;1451840;89;22175;-75
2024/03/06 09:34:16;;;;;;;14.75;9.85;;;;;;;9.44;100.00;100321.16;1452717;89;22174;-75
2024/03/06 09:36:49;;;;;;;12.50;8.60;;;;;;;9.62;100.00;100323.88;1445318;90;21435;-75
2024/03/06 09:39:20;;;;;;;15.80;9.10;;;;;;;9.71;100.00;100315.58;1535422;89;21983;-75
2024/03/06 09:41:48;;;;;;;12.47;8.25;;;;;;;9.83;100.00;100313.08;1535701;89;21154;-76
2024/03/06 09:44:15;;;;;;;16.57;8.97;;;;;;;9.83;100.00;100315.73;1534133;89;21558;-75
2024/03/06 09:46:47;;;;;;;13.00;7.50;;;;;;;10.03;100.00;100320.94;1379306;89;21251;-75
2024/03/06 09:49:16;;;;;;;15.93;7.50;;;;;;;10.06;100.00;100321.96;1529406;89;21435;-76
2024/03/06 09:51:46;;;;;;;10.80;7.97;;;;;;;9.92;100.00;100325.42;1535436;89;21192;-76
2024/03/06 09:54:14;;;;;;;13.28;8.63;;;;;;;9.94;100.00;100331.41;1400664;90;21531;-76
2024/03/06 09:56:47;;;;;;;22.13;11.43;;;;;;;10.07;100.00;100325.80;1377873;89;21382;-75
2024/03/06 09:59:14;;;;;;;12.90;8.47;;;;;;;10.17;100.00;100333.67;1375267;89;21258;-75
2024/03/06 10:01:57;;;;;;;13.97;8.57;;;;;;;10.37;100.00;100331.29;1378528;89;21221;-75
2024/03/06 10:04:28;;;;;;;15.27;9.70;;;;;;;10.30;100.00;100325.41;1535418;89;22057;-76
2024/03/06 10:06:59;;;;;;;13.45;9.13;;;;;;;10.14;100.00;100332.64;1535707;89;21340;-77
2024/03/06 10:09:27;;;;;;;13.87;9.43;;;;;;;10.16;100.00;100335.48;1529522;90;21287;-76
2024/03/06 10:11:56;;;;;;;14.10;10.33;;;;;;;10.31;100.00;100333.20;1377459;90;21206;-76
2024/03/06 10:14:21;;;;;;;18.10;9.57;;;;;;;10.39;100.00;100326.69;1376859;89;21354;-76
2024/03/06 10:16:58;;;;;;;13.10;9.27;;;;;;;10.26;100.00;100328.81;1380087;90;21332;-76
2024/03/06 10:19:27;;;;;;;12.43;8.93;;;;;;;10.46;100.00;100327.41;1535427;89;21177;-76
2024/03/06 10:21:54;;;;;;;15.10;9.50;;;;;;;10.21;100.00;100332.37;1370119;90;21273;-77
2024/03/06 10:24:23;;;;;;;13.07;8.77;;;;;;;10.26;100.00;100334.59;1379058;89;21213;-76
2024/03/06 10:26:51;;;;;;;13.57;9.17;;;;;;;10.05;100.00;100333.03;1405601;89;21457;-76
2024/03/06 10:29:18;;;;;;;11.63;8.73;;;;;;;10.07;100.00;100330.23;1377319;89;21406;-76
2024/03/06 10:31:54;;;;;;;13.87;9.63;;;;;;;9.93;100.00;100333.72;1383833;89;22290;-76
2024/03/06 10:34:21;;;;;;;13.53;9.27;;;;;;;9.93;100.00;100339.50;1524712;90;21383;-76
2024/03/06 10:36:53;;;;;;;12.70;8.83;;;;;;;9.94;100.00;100330.08;1379053;89;21390;-76
2024/03/06 10:39:21;;;;;;;13.23;9.50;;;;;;;10.03;100.00;100332.83;1534579;89;21383;-77
2024/03/06 10:41:54;;;;;;;14.90;10.30;;;;;;;10.28;100.00;100327.39;1377683;89;21258;-77
2024/03/06 10:44:28;;;;;;;24.57;10.00;;;;;;;10.37;100.00;100323.34;1535656;89;21272;-77
2024/03/06 10:47:02;;;;;;;12.43;8.87;;;;;;;10.55;100.00;100318.56;1535463;90;21287;-77
2024/03/06 10:49:32;;;;;;;15.43;9.70;;;;;;;10.72;100.00;100319.56;1376857;89;22330;-76
2024/03/06 10:52:06;;;;;;;10.83;7.77;;;;;;;11.24;100.00;100320.49;1381752;89;21257;-78
2024/03/06 10:54:34;;;;;;;16.63;9.30;;;;;;;11.14;100.00;100322.92;1526904;90;21391;-77
2024/03/06 10:57:00;;;;;;;10.73;8.40;;;;;;;11.45;100.00;100314.86;1462780;90;21457;-76
2024/03/06 10:59:29;;;;;;;13.93;7.97;;;;;;;11.54;100.00;100318.39;1378909;89;21243;-76
2024/03/06 11:01:57;;;;;;;10.90;8.47;;;;;;;11.46;100.00;100318.34;1382743;89;21370;-76
2024/03/06 11:04:33;;;;;;;11.67;8.60;;;;;;;11.67;100.00;100311.33;1453200;89;22329;-75
2024/03/06 11:07:00;;;;;;;11.23;8.50;;;;;;;11.68;100.00;100309.86;1456134;90;21479;-75
2024/03/06 11:09:30;;;;;;;11.27;7.93;;;;;;;11.69;100.00;100302.73;1411622;90;21434;-75
2024/03/06 11:11:56;;;;;;;12.30;8.25;;;;;;;11.82;100.00;100299.63;1435892;90;22291;-75